sensor_id;sensor_type;location;lat;lon;timestamp;P1;durP1;ratioP1;P2;durP2;ratioP2
25653;SDS011;13511;48.622;9.230;2023-04-12T00:00:25;8.02;;;7.43;;
25653;SDS011;13511;48.622;9.230;2023-04-12T00:02:51;8.40;;;7.70;;
25653;SDS011;13511;48.622;9.230;2023-04-12T00:05:21;10.60;;;7.82;;
25653;SDS011;13511;48.622;9.230;2023-04-12T00:07:50;9.73;;;8.07;;
25653;SDS011;13511;48.622;9.230;2023-04-12T00:10:17;8.52;;;7.88;;
25653;SDS011;13511;48.622;9.230;2023-04-12T00:12:43;8.35;;;7.75;;
25653;SDS011;13511;48.622;9.230;2023-04-12T00:15:10;8.98;;;8.18;;
25653;SDS011;13511;48.622;9.230;2023-04-12T00:17:36;8.35;;;7.80;;
25653;SDS011;13511;48.622;9.230;2023-04-12T00:20:02;10.45;;;8.73;;
25653;SDS011;13511;48.622;9.230;2023-04-12T00:22:36;8.60;;;7.90;;
25653;SDS011;13511;48.622;9.230;2023-04-12T00:25:02;9.55;;;8.30;;
25653;SDS011;13511;48.622;9.230;2023-04-12T00:27:28;10.13;;;9.20;;
25653;SDS011;13511;48.622;9.230;2023-04-12T00:29:54;8.63;;;7.93;;
25653;SDS011;13511;48.622;9.230;2023-04-12T00:32:20;8.75;;;8.02;;
25653;SDS011;13511;48.622;9.230;2023-04-12T00:34:46;8.80;;;8.05;;
25653;SDS011;13511;48.622;9.230;2023-04-12T00:37:12;8.82;;;8.02;;
25653;SDS011;13511;48.622;9.230;2023-04-12T00:39:38;9.40;;;8.50;;
25653;SDS011;13511;48.622;9.230;2023-04-12T00:42:04;9.02;;;8.32;;
25653;SDS011;13511;48.622;9.230;2023-04-12T00:44:31;8.70;;;8.00;;
25653;SDS011;13511;48.622;9.230;2023-04-12T00:46:58;8.65;;;7.88;;
25653;SDS011;13511;48.622;9.230;2023-04-12T00:49:24;9.57;;;8.30;;
25653;SDS011;13511;48.622;9.230;2023-04-12T00:51:55;9.55;;;8.32;;
25653;SDS011;13511;48.622;9.230;2023-04-12T00:54:22;9.82;;;8.88;;
25653;SDS011;13511;48.622;9.230;2023-04-12T00:56:49;8.50;;;7.80;;
25653;SDS011;13511;48.622;9.230;2023-04-12T00:59:15;13.52;;;8.52;;
25653;SDS011;13511;48.622;9.230;2023-04-12T01:01:42;9.40;;;8.50;;
25653;SDS011;13511;48.622;9.230;2023-04-12T01:04:09;10.00;;;9.13;;
25653;SDS011;13511;48.622;9.230;2023-04-12T01:09:26;9.70;;;8.45;;
25653;SDS011;13511;48.622;9.230;2023-04-12T01:12:05;9.05;;;8.18;;
25653;SDS011;13511;48.622;9.230;2023-04-12T01:16:59;9.88;;;8.98;;
25653;SDS011;13511;48.622;9.230;2023-04-12T01:19:37;8.77;;;7.97;;
25653;SDS011;13511;48.622;9.230;2023-04-12T01:27:01;9.65;;;8.85;;
25653;SDS011;13511;48.622;9.230;2023-04-12T01:29:28;10.35;;;9.02;;
25653;SDS011;13511;48.622;9.230;2023-04-12T01:31:58;11.45;;;8.88;;
25653;SDS011;13511;48.622;9.230;2023-04-12T01:34:27;12.50;;;8.85;;
25653;SDS011;13511;48.622;9.230;2023-04-12T01:36:53;9.77;;;8.93;;
25653;SDS011;13511;48.622;9.230;2023-04-12T01:39:20;9.80;;;8.50;;
25653;SDS011;13511;48.622;9.230;2023-04-12T01:41:46;10.23;;;8.95;;
25653;SDS011;13511;48.622;9.230;2023-04-12T01:44:16;10.60;;;9.27;;
25653;SDS011;13511;48.622;9.230;2023-04-12T01:46:43;9.60;;;8.88;;
25653;SDS011;13511;48.622;9.230;2023-04-12T01:49:11;16.20;;;9.55;;
25653;SDS011;13511;48.622;9.230;2023-04-12T01:54:07;9.93;;;8.95;;
25653;SDS011;13511;48.622;9.230;2023-04-12T01:56:38;10.52;;;9.23;;
25653;SDS011;13511;48.622;9.230;2023-04-12T01:59:05;10.65;;;9.70;;
25653;SDS011;13511;48.622;9.230;2023-04-12T02:01:32;9.50;;;8.80;;
25653;SDS011;13511;48.622;9.230;2023-04-12T02:03:58;10.23;;;9.40;;
25653;SDS011;13511;48.622;9.230;2023-04-12T02:06:25;9.55;;;8.90;;
25653;SDS011;13511;48.622;9.230;2023-04-12T02:08:58;9.38;;;8.68;;
25653;SDS011;13511;48.622;9.230;2023-04-12T02:11:26;10.35;;;9.38;;
25653;SDS011;13511;48.622;9.230;2023-04-12T02:13:52;11.10;;;9.20;;
25653;SDS011;13511;48.622;9.230;2023-04-12T02:16:18;10.57;;;9.32;;
25653;SDS011;13511;48.622;9.230;2023-04-12T02:18:44;9.30;;;8.63;;
25653;SDS011;13511;48.622;9.230;2023-04-12T02:21:11;9.38;;;8.68;;
25653;SDS011;13511;48.622;9.230;2023-04-12T02:23:37;9.57;;;8.90;;
25653;SDS011;13511;48.622;9.230;2023-04-12T02:26:03;10.13;;;9.07;;
25653;SDS011;13511;48.622;9.230;2023-04-12T02:28:30;10.15;;;9.15;;
25653;SDS011;13511;48.622;9.230;2023-04-12T02:30:57;13.20;;;9.85;;
25653;SDS011;13511;48.622;9.230;2023-04-12T02:33:23;9.77;;;9.07;;
25653;SDS011;13511;48.622;9.230;2023-04-12T02:35:52;9.90;;;9.02;;
25653;SDS011;13511;48.622;9.230;2023-04-12T02:38:18;9.77;;;8.98;;
25653;SDS011;13511;48.622;9.230;2023-04-12T02:40:43;9.02;;;8.52;;
25653;SDS011;13511;48.622;9.230;2023-04-12T02:43:09;9.13;;;8.35;;
25653;SDS011;13511;48.622;9.230;2023-04-12T02:45:35;9.88;;;8.55;;
25653;SDS011;13511;48.622;9.230;2023-04-12T02:48:02;9.55;;;8.40;;
25653;SDS011;13511;48.622;9.230;2023-04-12T02:50:29;8.90;;;8.20;;
25653;SDS011;13511;48.622;9.230;2023-04-12T02:52:55;9.40;;;8.50;;
25653;SDS011;13511;48.622;9.230;2023-04-12T02:55:21;9.20;;;8.40;;
25653;SDS011;13511;48.622;9.230;2023-04-12T02:57:47;11.23;;;8.45;;
25653;SDS011;13511;48.622;9.230;2023-04-12T03:00:14;9.68;;;8.77;;
25653;SDS011;13511;48.622;9.230;2023-04-12T03:02:41;9.80;;;8.85;;
25653;SDS011;13511;48.622;9.230;2023-04-12T03:05:07;10.57;;;9.40;;
25653;SDS011;13511;48.622;9.230;2023-04-12T03:07:33;10.73;;;9.65;;
25653;SDS011;13511;48.622;9.230;2023-04-12T03:10:00;11.75;;;9.38;;
25653;SDS011;13511;48.622;9.230;2023-04-12T03:12:26;11.40;;;9.68;;
25653;SDS011;13511;48.622;9.230;2023-04-12T03:14:52;12.30;;;10.50;;
25653;SDS011;13511;48.622;9.230;2023-04-12T03:17:18;10.20;;;9.30;;
25653;SDS011;13511;48.622;9.230;2023-04-12T03:19:44;16.92;;;9.32;;
25653;SDS011;13511;48.622;9.230;2023-04-12T03:22:10;10.65;;;9.85;;
25653;SDS011;13511;48.622;9.230;2023-04-12T03:24:36;11.27;;;10.10;;
25653;SDS011;13511;48.622;9.230;2023-04-12T03:27:03;12.48;;;9.45;;
25653;SDS011;13511;48.622;9.230;2023-04-12T03:29:30;10.63;;;9.73;;
25653;SDS011;13511;48.622;9.230;2023-04-12T03:31:56;10.65;;;9.82;;
25653;SDS011;13511;48.622;9.230;2023-04-12T03:34:24;10.55;;;9.48;;
25653;SDS011;13511;48.622;9.230;2023-04-12T03:36:51;10.65;;;9.63;;
25653;SDS011;13511;48.622;9.230;2023-04-12T03:39:17;10.70;;;9.90;;
25653;SDS011;13511;48.622;9.230;2023-04-12T03:41:43;10.30;;;9.40;;
25653;SDS011;13511;48.622;9.230;2023-04-12T03:44:10;10.80;;;9.90;;
25653;SDS011;13511;48.622;9.230;2023-04-12T03:46:36;10.48;;;9.50;;
25653;SDS011;13511;48.622;9.230;2023-04-12T03:49:02;11.02;;;9.88;;
25653;SDS011;13511;48.622;9.230;2023-04-12T03:51:28;11.35;;;9.63;;
25653;SDS011;13511;48.622;9.230;2023-04-12T03:53:55;10.60;;;9.35;;
25653;SDS011;13511;48.622;9.230;2023-04-12T03:56:21;10.95;;;9.90;;
25653;SDS011;13511;48.622;9.230;2023-04-12T03:58:47;10.15;;;9.48;;
25653;SDS011;13511;48.622;9.230;2023-04-12T04:01:13;11.07;;;9.50;;
25653;SDS011;13511;48.622;9.230;2023-04-12T04:03:41;11.20;;;10.10;;
25653;SDS011;13511;48.622;9.230;2023-04-12T04:06:08;13.02;;;10.88;;
25653;SDS011;13511;48.622;9.230;2023-04-12T04:08:35;11.32;;;9.95;;
25653;SDS011;13511;48.622;9.230;2023-04-12T04:11:01;11.85;;;10.85;;
25653;SDS011;13511;48.622;9.230;2023-04-12T04:13:27;10.63;;;9.70;;
25653;SDS011;13511;48.622;9.230;2023-04-12T04:16:04;11.80;;;10.80;;
25653;SDS011;13511;48.622;9.230;2023-04-12T04:18:30;11.75;;;10.68;;
25653;SDS011;13511;48.622;9.230;2023-04-12T04:20:56;12.25;;;11.05;;
25653;SDS011;13511;48.622;9.230;2023-04-12T04:23:23;12.88;;;11.50;;
25653;SDS011;13511;48.622;9.230;2023-04-12T04:25:49;13.27;;;12.07;;
25653;SDS011;13511;48.622;9.230;2023-04-12T04:28:17;13.20;;;11.88;;
25653;SDS011;13511;48.622;9.230;2023-04-12T04:30:43;12.35;;;11.23;;
25653;SDS011;13511;48.622;9.230;2023-04-12T04:33:13;11.25;;;10.20;;
25653;SDS011;13511;48.622;9.230;2023-04-12T04:35:43;12.05;;;10.98;;
25653;SDS011;13511;48.622;9.230;2023-04-12T04:38:09;13.23;;;10.70;;
25653;SDS011;13511;48.622;9.230;2023-04-12T04:40:36;11.27;;;10.38;;
25653;SDS011;13511;48.622;9.230;2023-04-12T04:43:02;12.27;;;11.27;;
25653;SDS011;13511;48.622;9.230;2023-04-12T04:45:29;12.65;;;11.45;;
25653;SDS011;13511;48.622;9.230;2023-04-12T04:47:56;12.93;;;11.38;;
25653;SDS011;13511;48.622;9.230;2023-04-12T04:50:22;12.82;;;11.15;;
25653;SDS011;13511;48.622;9.230;2023-04-12T04:52:50;11.82;;;10.73;;
25653;SDS011;13511;48.622;9.230;2023-04-12T04:55:16;11.38;;;10.35;;
25653;SDS011;13511;48.622;9.230;2023-04-12T04:57:43;11.98;;;10.90;;
25653;SDS011;13511;48.622;9.230;2023-04-12T05:00:09;17.35;;;11.68;;
25653;SDS011;13511;48.622;9.230;2023-04-12T05:02:37;14.10;;;12.45;;
25653;SDS011;13511;48.622;9.230;2023-04-12T05:05:09;13.45;;;12.23;;
25653;SDS011;13511;48.622;9.230;2023-04-12T05:07:37;13.50;;;12.10;;
25653;SDS011;13511;48.622;9.230;2023-04-12T05:10:03;12.20;;;11.00;;
25653;SDS011;13511;48.622;9.230;2023-04-12T05:12:29;15.48;;;12.80;;
25653;SDS011;13511;48.622;9.230;2023-04-12T05:14:56;13.95;;;12.68;;
25653;SDS011;13511;48.622;9.230;2023-04-12T05:17:22;20.75;;;18.75;;
25653;SDS011;13511;48.622;9.230;2023-04-12T05:19:48;46.42;;;35.13;;
25653;SDS011;13511;48.622;9.230;2023-04-12T05:22:13;46.90;;;37.88;;
25653;SDS011;13511;48.622;9.230;2023-04-12T05:24:44;26.48;;;23.63;;
25653;SDS011;13511;48.622;9.230;2023-04-12T05:27:10;16.00;;;14.38;;
25653;SDS011;13511;48.622;9.230;2023-04-12T05:29:36;20.77;;;18.80;;
25653;SDS011;13511;48.622;9.230;2023-04-12T05:32:02;16.13;;;14.38;;
25653;SDS011;13511;48.622;9.230;2023-04-12T05:34:28;16.67;;;13.70;;
25653;SDS011;13511;48.622;9.230;2023-04-12T05:36:54;14.45;;;12.93;;
25653;SDS011;13511;48.622;9.230;2023-04-12T05:39:21;14.85;;;11.32;;
25653;SDS011;13511;48.622;9.230;2023-04-12T05:41:47;11.88;;;10.70;;
25653;SDS011;13511;48.622;9.230;2023-04-12T05:44:13;11.63;;;10.35;;
25653;SDS011;13511;48.622;9.230;2023-04-12T05:46:39;11.32;;;10.38;;
25653;SDS011;13511;48.622;9.230;2023-04-12T05:49:05;11.27;;;10.25;;
25653;SDS011;13511;48.622;9.230;2023-04-12T05:51:31;10.68;;;9.80;;
25653;SDS011;13511;48.622;9.230;2023-04-12T05:53:57;9.50;;;8.73;;
25653;SDS011;13511;48.622;9.230;2023-04-12T05:56:23;10.60;;;9.82;;
25653;SDS011;13511;48.622;9.230;2023-04-12T05:58:49;10.13;;;9.30;;
25653;SDS011;13511;48.622;9.230;2023-04-12T06:01:16;9.65;;;9.05;;
25653;SDS011;13511;48.622;9.230;2023-04-12T06:03:43;9.70;;;8.82;;
25653;SDS011;13511;48.622;9.230;2023-04-12T06:06:10;9.82;;;9.02;;
25653;SDS011;13511;48.622;9.230;2023-04-12T06:08:36;9.70;;;8.90;;
25653;SDS011;13511;48.622;9.230;2023-04-12T06:11:05;9.02;;;8.45;;
25653;SDS011;13511;48.622;9.230;2023-04-12T06:13:32;9.43;;;8.88;;
25653;SDS011;13511;48.622;9.230;2023-04-12T06:15:58;9.38;;;8.77;;
25653;SDS011;13511;48.622;9.230;2023-04-12T06:18:24;9.65;;;8.95;;
25653;SDS011;13511;48.622;9.230;2023-04-12T06:20:50;9.38;;;8.88;;
25653;SDS011;13511;48.622;9.230;2023-04-12T06:23:16;9.40;;;8.75;;
25653;SDS011;13511;48.622;9.230;2023-04-12T06:25:43;10.93;;;9.27;;
25653;SDS011;13511;48.622;9.230;2023-04-12T06:28:09;11.63;;;9.07;;
25653;SDS011;13511;48.622;9.230;2023-04-12T06:30:35;9.60;;;8.98;;
25653;SDS011;13511;48.622;9.230;2023-04-12T06:33:01;9.90;;;9.15;;
25653;SDS011;13511;48.622;9.230;2023-04-12T06:35:27;10.45;;;9.57;;
25653;SDS011;13511;48.622;9.230;2023-04-12T06:37:53;9.50;;;8.80;;
25653;SDS011;13511;48.622;9.230;2023-04-12T06:40:20;9.65;;;8.85;;
25653;SDS011;13511;48.622;9.230;2023-04-12T06:42:46;9.88;;;9.07;;
25653;SDS011;13511;48.622;9.230;2023-04-12T06:45:12;9.38;;;8.50;;
25653;SDS011;13511;48.622;9.230;2023-04-12T06:47:38;10.07;;;8.68;;
25653;SDS011;13511;48.622;9.230;2023-04-12T06:50:04;9.45;;;8.65;;
25653;SDS011;13511;48.622;9.230;2023-04-12T06:52:31;9.23;;;8.63;;
25653;SDS011;13511;48.622;9.230;2023-04-12T06:54:57;8.13;;;7.63;;
25653;SDS011;13511;48.622;9.230;2023-04-12T06:57:23;8.48;;;8.07;;
25653;SDS011;13511;48.622;9.230;2023-04-12T06:59:49;8.90;;;8.27;;
25653;SDS011;13511;48.622;9.230;2023-04-12T07:02:15;8.70;;;8.00;;
25653;SDS011;13511;48.622;9.230;2023-04-12T07:04:41;8.30;;;7.70;;
25653;SDS011;13511;48.622;9.230;2023-04-12T07:07:07;8.02;;;7.57;;
25653;SDS011;13511;48.622;9.230;2023-04-12T07:09:34;6.93;;;6.60;;
25653;SDS011;13511;48.622;9.230;2023-04-12T07:12:00;7.15;;;6.50;;
25653;SDS011;13511;48.622;9.230;2023-04-12T07:14:27;7.18;;;6.68;;
25653;SDS011;13511;48.622;9.230;2023-04-12T07:16:53;7.53;;;7.10;;
25653;SDS011;13511;48.622;9.230;2023-04-12T07:19:19;7.13;;;6.72;;
25653;SDS011;13511;48.622;9.230;2023-04-12T07:21:45;7.22;;;6.80;;
25653;SDS011;13511;48.622;9.230;2023-04-12T07:24:11;6.13;;;5.93;;
25653;SDS011;13511;48.622;9.230;2023-04-12T07:26:37;6.40;;;6.03;;
25653;SDS011;13511;48.622;9.230;2023-04-12T07:29:03;6.72;;;6.32;;
25653;SDS011;13511;48.622;9.230;2023-04-12T07:31:29;6.88;;;6.57;;
25653;SDS011;13511;48.622;9.230;2023-04-12T07:33:55;6.00;;;5.80;;
25653;SDS011;13511;48.622;9.230;2023-04-12T07:36:21;6.82;;;6.53;;
25653;SDS011;13511;48.622;9.230;2023-04-12T07:38:47;6.88;;;6.57;;
25653;SDS011;13511;48.622;9.230;2023-04-12T07:43:44;6.70;;;6.40;;
25653;SDS011;13511;48.622;9.230;2023-04-12T07:46:10;6.72;;;6.25;;
25653;SDS011;13511;48.622;9.230;2023-04-12T07:48:36;6.72;;;6.22;;
25653;SDS011;13511;48.622;9.230;2023-04-12T07:51:02;6.63;;;6.30;;
25653;SDS011;13511;48.622;9.230;2023-04-12T07:53:28;21.30;;;19.27;;
25653;SDS011;13511;48.622;9.230;2023-04-12T07:55:55;7.32;;;6.93;;
25653;SDS011;13511;48.622;9.230;2023-04-12T07:58:22;9.48;;;8.77;;
25653;SDS011;13511;48.622;9.230;2023-04-12T08:00:48;9.45;;;8.95;;
25653;SDS011;13511;48.622;9.230;2023-04-12T08:03:15;8.23;;;7.80;;
25653;SDS011;13511;48.622;9.230;2023-04-12T08:05:41;8.07;;;7.68;;
25653;SDS011;13511;48.622;9.230;2023-04-12T08:08:08;8.90;;;8.02;;
25653;SDS011;13511;48.622;9.230;2023-04-12T08:10:34;7.65;;;7.25;;
25653;SDS011;13511;48.622;9.230;2023-04-12T08:13:01;7.30;;;7.00;;
25653;SDS011;13511;48.622;9.230;2023-04-12T08:15:27;7.90;;;7.30;;
25653;SDS011;13511;48.622;9.230;2023-04-12T08:17:53;7.68;;;7.28;;
25653;SDS011;13511;48.622;9.230;2023-04-12T08:20:19;7.15;;;6.82;;
25653;SDS011;13511;48.622;9.230;2023-04-12T08:22:45;6.78;;;6.35;;
25653;SDS011;13511;48.622;9.230;2023-04-12T08:25:12;6.80;;;6.50;;
25653;SDS011;13511;48.622;9.230;2023-04-12T08:27:41;6.85;;;6.45;;
25653;SDS011;13511;48.622;9.230;2023-04-12T08:30:07;6.70;;;6.40;;
25653;SDS011;13511;48.622;9.230;2023-04-12T08:32:34;6.43;;;5.82;;
25653;SDS011;13511;48.622;9.230;2023-04-12T08:35:01;6.75;;;6.43;;
25653;SDS011;13511;48.622;9.230;2023-04-12T08:37:27;7.10;;;6.60;;
25653;SDS011;13511;48.622;9.230;2023-04-12T08:39:53;6.75;;;6.35;;
25653;SDS011;13511;48.622;9.230;2023-04-12T08:42:19;6.78;;;6.45;;
25653;SDS011;13511;48.622;9.230;2023-04-12T08:44:45;6.35;;;6.15;;
25653;SDS011;13511;48.622;9.230;2023-04-12T08:47:12;6.60;;;6.30;;
25653;SDS011;13511;48.622;9.230;2023-04-12T08:49:38;6.18;;;5.97;;
25653;SDS011;13511;48.622;9.230;2023-04-12T08:52:08;6.47;;;6.20;;
25653;SDS011;13511;48.622;9.230;2023-04-12T08:54:34;6.28;;;5.97;;
25653;SDS011;13511;48.622;9.230;2023-04-12T08:57:01;7.30;;;6.82;;
25653;SDS011;13511;48.622;9.230;2023-04-12T08:59:28;6.70;;;6.40;;
25653;SDS011;13511;48.622;9.230;2023-04-12T09:01:54;6.97;;;6.57;;
25653;SDS011;13511;48.622;9.230;2023-04-12T09:04:21;6.60;;;6.30;;
25653;SDS011;13511;48.622;9.230;2023-04-12T09:06:47;7.10;;;6.70;;
25653;SDS011;13511;48.622;9.230;2023-04-12T09:09:16;7.38;;;7.00;;
25653;SDS011;13511;48.622;9.230;2023-04-12T09:11:42;7.10;;;6.60;;
25653;SDS011;13511;48.622;9.230;2023-04-12T09:14:21;7.15;;;6.75;;
25653;SDS011;13511;48.622;9.230;2023-04-12T09:16:48;7.75;;;7.25;;
25653;SDS011;13511;48.622;9.230;2023-04-12T09:19:14;8.15;;;7.60;;
25653;SDS011;13511;48.622;9.230;2023-04-12T09:21:54;11.73;;;10.60;;
25653;SDS011;13511;48.622;9.230;2023-04-12T09:24:20;7.80;;;7.32;;
25653;SDS011;13511;48.622;9.230;2023-04-12T09:27:09;7.85;;;7.15;;
25653;SDS011;13511;48.622;9.230;2023-04-12T09:29:35;7.43;;;7.10;;
25653;SDS011;13511;48.622;9.230;2023-04-12T09:32:02;7.47;;;7.00;;
25653;SDS011;13511;48.622;9.230;2023-04-12T09:34:28;7.03;;;6.50;;
25653;SDS011;13511;48.622;9.230;2023-04-12T09:36:54;7.10;;;6.70;;
25653;SDS011;13511;48.622;9.230;2023-04-12T09:39:33;7.00;;;6.53;;
25653;SDS011;13511;48.622;9.230;2023-04-12T09:42:06;7.30;;;6.80;;
25653;SDS011;13511;48.622;9.230;2023-04-12T09:44:32;7.35;;;6.85;;
25653;SDS011;13511;48.622;9.230;2023-04-12T09:46:58;7.05;;;6.65;;
25653;SDS011;13511;48.622;9.230;2023-04-12T09:52:03;7.93;;;7.30;;
25653;SDS011;13511;48.622;9.230;2023-04-12T09:54:30;8.50;;;7.72;;
25653;SDS011;13511;48.622;9.230;2023-04-12T09:56:58;8.00;;;7.28;;
25653;SDS011;13511;48.622;9.230;2023-04-12T09:59:25;7.97;;;7.38;;
25653;SDS011;13511;48.622;9.230;2023-04-12T10:01:53;7.93;;;7.30;;
25653;SDS011;13511;48.622;9.230;2023-04-12T10:04:20;7.65;;;7.18;;
25653;SDS011;13511;48.622;9.230;2023-04-12T10:06:46;8.20;;;7.68;;
25653;SDS011;13511;48.622;9.230;2023-04-12T10:09:12;7.20;;;6.65;;
25653;SDS011;13511;48.622;9.230;2023-04-12T10:11:38;6.97;;;6.30;;
25653;SDS011;13511;48.622;9.230;2023-04-12T10:14:05;7.88;;;6.60;;
25653;SDS011;13511;48.622;9.230;2023-04-12T10:16:34;7.60;;;7.00;;
25653;SDS011;13511;48.622;9.230;2023-04-12T10:19:02;6.90;;;6.38;;
25653;SDS011;13511;48.622;9.230;2023-04-12T10:21:28;9.18;;;8.48;;
25653;SDS011;13511;48.622;9.230;2023-04-12T10:23:56;7.03;;;6.55;;
25653;SDS011;13511;48.622;9.230;2023-04-12T10:26:22;9.23;;;8.40;;
25653;SDS011;13511;48.622;9.230;2023-04-12T10:31:33;11.77;;;10.68;;
25653;SDS011;13511;48.622;9.230;2023-04-12T10:34:02;7.78;;;7.00;;
25653;SDS011;13511;48.622;9.230;2023-04-12T10:39:15;7.20;;;6.60;;
25653;SDS011;13511;48.622;9.230;2023-04-12T10:44:26;6.85;;;6.25;;
25653;SDS011;13511;48.622;9.230;2023-04-12T10:46:52;6.85;;;6.32;;
25653;SDS011;13511;48.622;9.230;2023-04-12T10:49:18;6.13;;;5.82;;
25653;SDS011;13511;48.622;9.230;2023-04-12T10:56:52;6.43;;;5.80;;
25653;SDS011;13511;48.622;9.230;2023-04-12T10:59:18;6.93;;;6.25;;
25653;SDS011;13511;48.622;9.230;2023-04-12T11:04:29;6.00;;;5.70;;
25653;SDS011;13511;48.622;9.230;2023-04-12T11:06:56;6.40;;;6.05;;
25653;SDS011;13511;48.622;9.230;2023-04-12T11:14:50;6.15;;;5.80;;
25653;SDS011;13511;48.622;9.230;2023-04-12T11:19:43;6.13;;;5.63;;
25653;SDS011;13511;48.622;9.230;2023-04-12T11:22:10;5.68;;;5.47;;
25653;SDS011;13511;48.622;9.230;2023-04-12T11:24:37;5.57;;;5.32;;
25653;SDS011;13511;48.622;9.230;2023-04-12T11:27:03;7.32;;;6.60;;
25653;SDS011;13511;48.622;9.230;2023-04-12T11:29:29;5.70;;;5.50;;
25653;SDS011;13511;48.622;9.230;2023-04-12T11:31:56;6.63;;;6.22;;
25653;SDS011;13511;48.622;9.230;2023-04-12T11:34:23;6.70;;;6.30;;
25653;SDS011;13511;48.622;9.230;2023-04-12T11:36:53;6.45;;;6.15;;
25653;SDS011;13511;48.622;9.230;2023-04-12T11:39:19;6.35;;;6.00;;
25653;SDS011;13511;48.622;9.230;2023-04-12T11:41:46;6.38;;;6.07;;
25653;SDS011;13511;48.622;9.230;2023-04-12T11:44:12;6.68;;;6.13;;
25653;SDS011;13511;48.622;9.230;2023-04-12T11:46:38;6.07;;;5.78;;
25653;SDS011;13511;48.622;9.230;2023-04-12T11:49:05;6.90;;;6.40;;
25653;SDS011;13511;48.622;9.230;2023-04-12T11:51:31;6.57;;;6.10;;
25653;SDS011;13511;48.622;9.230;2023-04-12T11:53:57;6.40;;;6.10;;
25653;SDS011;13511;48.622;9.230;2023-04-12T11:56:24;5.85;;;5.65;;
25653;SDS011;13511;48.622;9.230;2023-04-12T11:58:51;5.95;;;5.68;;
25653;SDS011;13511;48.622;9.230;2023-04-12T12:01:17;6.18;;;5.78;;
25653;SDS011;13511;48.622;9.230;2023-04-12T12:03:44;5.82;;;5.53;;
25653;SDS011;13511;48.622;9.230;2023-04-12T12:06:10;6.55;;;6.10;;
25653;SDS011;13511;48.622;9.230;2023-04-12T12:08:36;5.95;;;5.75;;
25653;SDS011;13511;48.622;9.230;2023-04-12T12:11:03;5.97;;;5.78;;
25653;SDS011;13511;48.622;9.230;2023-04-12T12:13:45;5.82;;;5.55;;
25653;SDS011;13511;48.622;9.230;2023-04-12T12:16:11;6.50;;;6.20;;
25653;SDS011;13511;48.622;9.230;2023-04-12T12:18:41;5.90;;;5.60;;
25653;SDS011;13511;48.622;9.230;2023-04-12T12:21:07;6.05;;;5.82;;
25653;SDS011;13511;48.622;9.230;2023-04-12T12:23:34;6.05;;;5.68;;
25653;SDS011;13511;48.622;9.230;2023-04-12T12:26:00;5.70;;;5.50;;
25653;SDS011;13511;48.622;9.230;2023-04-12T12:28:35;5.65;;;5.45;;
25653;SDS011;13511;48.622;9.230;2023-04-12T12:31:01;5.88;;;5.63;;
25653;SDS011;13511;48.622;9.230;2023-04-12T12:33:37;5.75;;;5.55;;
25653;SDS011;13511;48.622;9.230;2023-04-12T12:36:03;6.15;;;5.75;;
25653;SDS011;13511;48.622;9.230;2023-04-12T12:38:39;5.35;;;5.15;;
25653;SDS011;13511;48.622;9.230;2023-04-12T12:41:13;5.65;;;5.32;;
25653;SDS011;13511;48.622;9.230;2023-04-12T12:43:47;5.50;;;5.28;;
25653;SDS011;13511;48.622;9.230;2023-04-12T12:46:13;5.43;;;5.22;;
25653;SDS011;13511;48.622;9.230;2023-04-12T12:48:42;6.25;;;5.85;;
25653;SDS011;13511;48.622;9.230;2023-04-12T12:51:08;6.00;;;5.80;;
25653;SDS011;13511;48.622;9.230;2023-04-12T12:53:35;6.28;;;5.93;;
25653;SDS011;13511;48.622;9.230;2023-04-12T12:56:02;6.40;;;6.10;;
25653;SDS011;13511;48.622;9.230;2023-04-12T12:58:28;6.28;;;5.97;;
25653;SDS011;13511;48.622;9.230;2023-04-12T13:00:54;5.53;;;5.32;;
25653;SDS011;13511;48.622;9.230;2023-04-12T13:03:20;6.00;;;5.60;;
25653;SDS011;13511;48.622;9.230;2023-04-12T13:05:47;6.15;;;5.63;;
25653;SDS011;13511;48.622;9.230;2023-04-12T13:08:15;5.68;;;5.47;;
25653;SDS011;13511;48.622;9.230;2023-04-12T13:10:41;6.10;;;5.60;;
25653;SDS011;13511;48.622;9.230;2023-04-12T13:13:07;6.00;;;5.57;;
25653;SDS011;13511;48.622;9.230;2023-04-12T13:15:33;6.00;;;5.80;;
25653;SDS011;13511;48.622;9.230;2023-04-12T13:17:59;5.75;;;5.55;;
25653;SDS011;13511;48.622;9.230;2023-04-12T13:20:25;5.97;;;5.53;;
25653;SDS011;13511;48.622;9.230;2023-04-12T13:22:52;5.60;;;5.30;;
25653;SDS011;13511;48.622;9.230;2023-04-12T13:25:18;5.78;;;5.47;;
25653;SDS011;13511;48.622;9.230;2023-04-12T13:27:46;5.40;;;5.10;;
25653;SDS011;13511;48.622;9.230;2023-04-12T13:30:12;5.32;;;5.13;;
25653;SDS011;13511;48.622;9.230;2023-04-12T13:32:38;5.65;;;5.22;;
25653;SDS011;13511;48.622;9.230;2023-04-12T13:35:04;5.78;;;5.30;;
25653;SDS011;13511;48.622;9.230;2023-04-12T13:37:32;5.80;;;5.60;;
25653;SDS011;13511;48.622;9.230;2023-04-12T13:39:58;5.60;;;5.40;;
25653;SDS011;13511;48.622;9.230;2023-04-12T13:42:24;5.85;;;5.47;;
25653;SDS011;13511;48.622;9.230;2023-04-12T13:44:50;5.60;;;5.30;;
25653;SDS011;13511;48.622;9.230;2023-04-12T13:47:16;5.68;;;5.40;;
25653;SDS011;13511;48.622;9.230;2023-04-12T13:49:42;5.78;;;5.57;;
25653;SDS011;13511;48.622;9.230;2023-04-12T13:52:08;5.40;;;5.20;;
25653;SDS011;13511;48.622;9.230;2023-04-12T13:54:34;5.55;;;5.35;;
25653;SDS011;13511;48.622;9.230;2023-04-12T13:57:00;5.47;;;5.25;;
25653;SDS011;13511;48.622;9.230;2023-04-12T13:59:28;5.40;;;5.20;;
25653;SDS011;13511;48.622;9.230;2023-04-12T14:01:54;5.50;;;5.20;;
25653;SDS011;13511;48.622;9.230;2023-04-12T14:04:21;6.00;;;5.70;;
25653;SDS011;13511;48.622;9.230;2023-04-12T14:06:47;6.00;;;5.60;;
25653;SDS011;13511;48.622;9.230;2023-04-12T14:09:23;5.78;;;5.40;;
25653;SDS011;13511;48.622;9.230;2023-04-12T14:11:52;5.68;;;5.47;;
25653;SDS011;13511;48.622;9.230;2023-04-12T14:14:22;5.47;;;5.18;;
25653;SDS011;13511;48.622;9.230;2023-04-12T14:16:48;5.30;;;5.20;;
25653;SDS011;13511;48.622;9.230;2023-04-12T14:19:17;5.22;;;5.03;;
25653;SDS011;13511;48.622;9.230;2023-04-12T14:21:43;5.55;;;5.25;;
25653;SDS011;13511;48.622;9.230;2023-04-12T14:24:09;5.45;;;5.25;;
25653;SDS011;13511;48.622;9.230;2023-04-12T14:26:35;4.85;;;4.70;;
25653;SDS011;13511;48.622;9.230;2023-04-12T14:29:03;5.00;;;4.80;;
25653;SDS011;13511;48.622;9.230;2023-04-12T14:31:30;4.60;;;4.40;;
25653;SDS011;13511;48.622;9.230;2023-04-12T14:33:56;4.30;;;4.10;;
25653;SDS011;13511;48.622;9.230;2023-04-12T14:36:22;4.15;;;4.05;;
25653;SDS011;13511;48.622;9.230;2023-04-12T14:38:48;4.40;;;4.25;;
25653;SDS011;13511;48.622;9.230;2023-04-12T14:41:14;4.20;;;4.10;;
25653;SDS011;13511;48.622;9.230;2023-04-12T14:43:41;4.50;;;4.20;;
25653;SDS011;13511;48.622;9.230;2023-04-12T14:46:06;4.68;;;4.47;;
25653;SDS011;13511;48.622;9.230;2023-04-12T14:48:32;4.88;;;4.47;;
25653;SDS011;13511;48.622;9.230;2023-04-12T14:50:59;4.55;;;4.35;;
25653;SDS011;13511;48.622;9.230;2023-04-12T14:53:25;4.70;;;4.40;;
25653;SDS011;13511;48.622;9.230;2023-04-12T14:55:51;4.60;;;4.28;;
25653;SDS011;13511;48.622;9.230;2023-04-12T14:58:17;4.43;;;4.28;;
25653;SDS011;13511;48.622;9.230;2023-04-12T15:00:43;4.50;;;4.20;;
25653;SDS011;13511;48.622;9.230;2023-04-12T15:03:09;4.60;;;4.30;;
25653;SDS011;13511;48.622;9.230;2023-04-12T15:05:35;4.60;;;4.20;;
25653;SDS011;13511;48.622;9.230;2023-04-12T15:08:01;4.32;;;4.22;;
25653;SDS011;13511;48.622;9.230;2023-04-12T15:10:28;4.80;;;4.60;;
25653;SDS011;13511;48.622;9.230;2023-04-12T15:12:54;4.40;;;4.30;;
25653;SDS011;13511;48.622;9.230;2023-04-12T15:15:22;4.72;;;4.53;;
25653;SDS011;13511;48.622;9.230;2023-04-12T15:17:48;5.00;;;4.80;;
25653;SDS011;13511;48.622;9.230;2023-04-12T15:20:14;4.43;;;4.32;;
25653;SDS011;13511;48.622;9.230;2023-04-12T15:22:41;4.30;;;4.20;;